createdAt,value
2022-09-14T00:00:06.618Z,397.8720
2022-09-14T00:00:17.830Z,395.0430
2022-09-14T00:00:29.021Z,394.1090
2022-09-14T00:00:40.213Z,394.1090
2022-09-14T00:01:08.242Z,396.9250
2022-09-14T00:01:24.312Z,390.1890
2022-09-14T00:01:26.927Z,384.5640
2022-09-14T00:01:38.488Z,382.1390
2022-09-14T00:01:49.767Z,384.5640
2022-09-14T00:02:01.091Z,384.5640
2022-09-14T00:02:12.406Z,384.7850
2022-09-14T00:02:23.701Z,385.0080
2022-09-14T00:02:35.059Z,388.1450
2022-09-14T00:02:46.424Z,387.2430
2022-09-14T00:02:57.727Z,387.0190
2022-09-14T00:03:08.925Z,387.6940
2022-09-14T00:03:20.542Z,386.5700
2022-09-14T00:03:31.739Z,386.5700
2022-09-14T00:03:43.008Z,387.9190
2022-09-14T00:03:54.192Z,387.2430
2022-09-14T00:04:05.332Z,389.5050
2022-09-14T00:04:16.538Z,388.5970
2022-09-14T00:04:27.664Z,391.3340
2022-09-14T00:04:38.789Z,388.5970
2022-09-14T00:04:49.918Z,389.2780
2022-09-14T00:05:01.045Z,392.9480
2022-09-14T00:05:12.215Z,389.0510
2022-09-14T00:05:23.572Z,390.6460
2022-09-14T00:05:34.705Z,389.9610
2022-09-14T00:05:45.822Z,389.9610
2022-09-14T00:05:57.015Z,389.9610
2022-09-14T00:06:08.212Z,390.4180
2022-09-14T00:06:19.418Z,392.9480
2022-09-14T00:06:30.618Z,389.7330
2022-09-14T00:06:41.675Z,389.5050
2022-09-14T00:06:52.808Z,391.3340
2022-09-14T00:07:03.949Z,392.2550
2022-09-14T00:07:15.087Z,390.6460
2022-09-14T00:07:26.215Z,391.1040
2022-09-14T00:07:37.500Z,389.9610
2022-09-14T00:07:48.633Z,393.4120
2022-09-14T00:07:59.766Z,392.7170
2022-09-14T00:08:10.892Z,390.4180
2022-09-14T00:08:22.016Z,391.7940
2022-09-14T00:08:33.291Z,392.4860
2022-09-14T00:08:44.377Z,390.8750
2022-09-14T00:08:55.532Z,392.2550
2022-09-14T00:09:06.671Z,393.4120
2022-09-14T00:09:17.794Z,395.5120
2022-09-14T00:09:28.924Z,391.3340
2022-09-14T00:09:40.001Z,392.9480
2022-09-14T00:09:51.266Z,393.4120
2022-09-14T00:10:02.459Z,393.8770
2022-09-14T00:10:13.662Z,392.7170
2022-09-14T00:10:24.861Z,392.4860
2022-09-14T00:10:35.931Z,390.8750
2022-09-14T00:10:47.063Z,391.7940
2022-09-14T00:10:58.202Z,391.7940
2022-09-14T00:11:09.330Z,392.2550
2022-09-14T00:11:20.409Z,392.0240
2022-09-14T00:11:31.469Z,391.7940
2022-09-14T00:11:42.610Z,393.8770
2022-09-14T00:11:53.740Z,391.7940
2022-09-14T00:12:04.863Z,391.7940
2022-09-14T00:12:16.142Z,392.2550
2022-09-14T00:12:27.272Z,391.5640
2022-09-14T00:12:38.314Z,391.5640
2022-09-14T00:12:49.500Z,391.5640
2022-09-14T00:13:00.692Z,393.1800
2022-09-14T00:13:11.753Z,395.5120
2022-09-14T00:13:22.880Z,391.3340
2022-09-14T00:13:34.092Z,394.5760
2022-09-14T00:13:45.223Z,392.2550
2022-09-14T00:13:56.416Z,393.1800
2022-09-14T00:14:07.571Z,391.3340
2022-09-14T00:14:18.698Z,392.9480
2022-09-14T00:14:29.816Z,391.5640
2022-09-14T00:14:41.087Z,391.1040
2022-09-14T00:14:52.225Z,391.7940
2022-09-14T00:15:03.355Z,393.8770
2022-09-14T00:15:14.489Z,391.3340
2022-09-14T00:15:25.655Z,390.6460
2022-09-14T00:15:36.785Z,391.3340
2022-09-14T00:15:47.913Z,391.5640
2022-09-14T00:15:59.042Z,390.8750
2022-09-14T00:16:10.210Z,391.7940
2022-09-14T00:16:21.393Z,391.3340
2022-09-14T00:16:32.614Z,390.8750
2022-09-14T00:16:43.791Z,390.4180
2022-09-14T00:16:55.327Z,392.2550
2022-09-14T00:17:06.684Z,391.7940
2022-09-14T00:17:17.868Z,393.1800
2022-09-14T00:17:28.986Z,389.2780
2022-09-14T00:17:40.125Z,390.8750
2022-09-14T00:17:51.186Z,390.6460
2022-09-14T00:18:02.314Z,389.7330
2022-09-14T00:18:13.436Z,389.0510
2022-09-14T00:18:24.567Z,389.9610
2022-09-14T00:18:35.732Z,389.9610
2022-09-14T00:18:46.864Z,389.0510
2022-09-14T00:18:58.027Z,391.5640
2022-09-14T00:19:09.309Z,391.7940
2022-09-14T00:19:20.446Z,389.5050
2022-09-14T00:19:31.582Z,389.7330
2022-09-14T00:19:42.707Z,390.1890
2022-09-14T00:19:53.841Z,389.9610
2022-09-14T00:20:05.025Z,390.4180
2022-09-14T00:20:16.088Z,390.8750
2022-09-14T00:20:27.228Z,390.1890
2022-09-14T00:20:38.354Z,389.7330
2022-09-14T00:20:49.476Z,389.9610
2022-09-14T00:21:00.606Z,390.8750
2022-09-14T00:21:11.721Z,390.8750
2022-09-14T00:21:22.989Z,389.9610
2022-09-14T00:21:34.135Z,390.6460
2022-09-14T00:21:45.267Z,392.7170
2022-09-14T00:21:56.395Z,389.9610
2022-09-14T00:22:07.570Z,390.4180
2022-09-14T00:22:18.707Z,390.6460
2022-09-14T00:22:29.842Z,390.4180
2022-09-14T00:22:40.969Z,390.6460
2022-09-14T00:22:52.095Z,390.6460
2022-09-14T00:23:03.235Z,390.4180
2022-09-14T00:23:14.366Z,393.1800
2022-09-14T00:23:25.642Z,390.4180
2022-09-14T00:23:36.716Z,390.8750
2022-09-14T00:23:47.826Z,390.4180
2022-09-14T00:23:58.983Z,391.1040
2022-09-14T00:24:10.109Z,393.1800
2022-09-14T00:24:21.242Z,392.4860
2022-09-14T00:24:32.375Z,392.9480
2022-09-14T00:24:43.497Z,391.1040
2022-09-14T00:24:54.635Z,391.7940
2022-09-14T00:25:05.814Z,391.7940
2022-09-14T00:25:16.945Z,392.0240
2022-09-14T00:25:28.073Z,392.2550
2022-09-14T00:25:39.126Z,392.2550
2022-09-14T00:25:50.438Z,392.0240
2022-09-14T00:26:01.570Z,392.7170
2022-09-14T00:26:12.698Z,393.1800
2022-09-14T00:26:23.895Z,392.7170
2022-09-14T00:26:35.026Z,392.9480
2022-09-14T00:26:46.166Z,392.9480
2022-09-14T00:26:57.286Z,393.6440
2022-09-14T00:27:08.422Z,393.6440
2022-09-14T00:27:19.570Z,393.1800
2022-09-14T00:27:30.695Z,394.3420
2022-09-14T00:27:41.821Z,393.6440
2022-09-14T00:27:53.091Z,393.8770
2022-09-14T00:28:04.229Z,393.6440
2022-09-14T00:28:15.367Z,394.1090
2022-09-14T00:28:26.502Z,394.8090
2022-09-14T00:28:37.633Z,393.6440
2022-09-14T00:28:48.807Z,395.0430
2022-09-14T00:28:59.972Z,393.6440
2022-09-14T00:29:11.101Z,394.1090
2022-09-14T00:29:22.233Z,393.6440
2022-09-14T00:29:33.378Z,393.6440
2022-09-14T00:29:44.535Z,396.2170
2022-09-14T00:29:55.884Z,393.8770
2022-09-14T00:30:07.033Z,394.1090
2022-09-14T00:30:18.159Z,395.9820
2022-09-14T00:30:29.336Z,394.3420
2022-09-14T00:30:40.453Z,394.5760
2022-09-14T00:30:51.577Z,394.1090
2022-09-14T00:31:02.714Z,394.5760
2022-09-14T00:31:14.017Z,395.0430
2022-09-14T00:31:25.242Z,396.6880
2022-09-14T00:31:36.422Z,394.1090
2022-09-14T00:31:47.646Z,395.7470
2022-09-14T00:31:59.023Z,394.5760
2022-09-14T00:32:10.284Z,395.9820
2022-09-14T00:32:21.405Z,394.3420
2022-09-14T00:32:32.535Z,395.7470
2022-09-14T00:32:43.733Z,395.2780
2022-09-14T00:32:54.873Z,395.2780
2022-09-14T00:33:05.996Z,399.3010
2022-09-14T00:33:17.134Z,395.5120
2022-09-14T00:33:28.250Z,397.3980
2022-09-14T00:33:39.433Z,395.9820
2022-09-14T00:33:50.777Z,394.8090
2022-09-14T00:34:02.113Z,395.7470
2022-09-14T00:34:13.260Z,394.5760
2022-09-14T00:34:24.586Z,395.2780
2022-09-14T00:34:35.713Z,394.8090
2022-09-14T00:34:46.852Z,395.9820
2022-09-14T00:34:57.972Z,397.3980
2022-09-14T00:35:09.097Z,395.9820
2022-09-14T00:35:20.223Z,396.4530
2022-09-14T00:35:31.412Z,397.3980
2022-09-14T00:35:42.458Z,396.4530
2022-09-14T00:35:53.512Z,396.9250
2022-09-14T00:36:04.846Z,397.3980
2022-09-14T00:36:15.984Z,396.6880
2022-09-14T00:36:27.118Z,396.2170
2022-09-14T00:36:38.168Z,397.8720
2022-09-14T00:36:49.218Z,397.3980
2022-09-14T00:37:00.377Z,397.8720
2022-09-14T00:37:11.576Z,397.6350
2022-09-14T00:37:22.645Z,397.6350
2022-09-14T00:37:33.780Z,397.8720
2022-09-14T00:37:44.825Z,398.1090
2022-09-14T00:37:55.949Z,397.3980
2022-09-14T00:38:07.076Z,397.3980
2022-09-14T00:38:18.221Z,397.6350
2022-09-14T00:38:29.370Z,398.1090
2022-09-14T00:38:40.467Z,398.1090
2022-09-14T00:38:51.709Z,398.3470
2022-09-14T00:39:02.902Z,397.6350
2022-09-14T00:39:14.067Z,398.3470
2022-09-14T00:39:25.199Z,399.3010
2022-09-14T00:39:36.252Z,396.9250
2022-09-14T00:39:47.464Z,396.9250
2022-09-14T00:39:58.631Z,398.1090
2022-09-14T00:40:09.884Z,397.6350
2022-09-14T00:40:21.096Z,399.3010
2022-09-14T00:40:32.154Z,398.3470
2022-09-14T00:40:43.324Z,398.1090
2022-09-14T00:40:54.457Z,398.5850
2022-09-14T00:41:05.734Z,399.5410
2022-09-14T00:41:16.793Z,398.8240
2022-09-14T00:41:27.844Z,398.1090
2022-09-14T00:41:38.978Z,398.3470
2022-09-14T00:41:50.106Z,398.3470
2022-09-14T00:42:01.242Z,397.8720
2022-09-14T00:42:12.366Z,398.8240
2022-09-14T00:42:23.497Z,399.3010
2022-09-14T00:42:34.566Z,398.8240
2022-09-14T00:42:45.695Z,400.0200
2022-09-14T00:42:56.756Z,397.8720
2022-09-14T00:43:07.891Z,398.3470
2022-09-14T00:43:19.013Z,398.5850
2022-09-14T00:43:30.147Z,398.3470
2022-09-14T00:43:41.499Z,399.3010
2022-09-14T00:43:52.553Z,400.5000
2022-09-14T00:44:03.771Z,400.5000
2022-09-14T00:44:14.966Z,400.7410
2022-09-14T00:44:26.137Z,400.2600
2022-09-14T00:44:37.181Z,400.0200
2022-09-14T00:44:48.221Z,400.5000
2022-09-14T00:44:59.419Z,399.7800
2022-09-14T00:45:10.629Z,400.7410
2022-09-14T00:45:21.921Z,400.5000
2022-09-14T00:45:33.116Z,399.3010
2022-09-14T00:45:44.237Z,400.2600
2022-09-14T00:45:55.544Z,400.2600
2022-09-14T00:46:06.808Z,399.5410
2022-09-14T00:46:18.112Z,399.5410
2022-09-14T00:46:29.481Z,400.9820
2022-09-14T00:46:40.528Z,400.2600
2022-09-14T00:46:51.652Z,400.2600
2022-09-14T00:47:02.791Z,400.5000
2022-09-14T00:47:13.935Z,400.5000
2022-09-14T00:47:25.062Z,400.5000
2022-09-14T00:47:36.210Z,402.1910
2022-09-14T00:47:47.290Z,401.2230
2022-09-14T00:47:58.425Z,401.4650
2022-09-14T00:48:09.568Z,401.4650
2022-09-14T00:48:20.702Z,401.7070
2022-09-14T00:48:31.895Z,403.1640
2022-09-14T00:48:43.033Z,401.4650
2022-09-14T00:48:54.314Z,401.2230
2022-09-14T00:49:05.540Z,400.9820
2022-09-14T00:49:16.703Z,400.7410
2022-09-14T00:49:27.894Z,402.1910
2022-09-14T00:49:39.013Z,401.7070
2022-09-14T00:49:50.159Z,401.2230
2022-09-14T00:50:01.302Z,402.1910
2022-09-14T00:50:12.410Z,402.1910
2022-09-14T00:50:23.573Z,402.6770
2022-09-14T00:50:34.709Z,401.9490
2022-09-14T00:50:45.836Z,405.1230
2022-09-14T00:50:57.099Z,402.1910
2022-09-14T00:51:08.226Z,401.4650
2022-09-14T00:51:19.355Z,402.4340
2022-09-14T00:51:30.489Z,403.4080
2022-09-14T00:51:41.672Z,402.1910
2022-09-14T00:51:52.856Z,402.6770
2022-09-14T00:52:04.056Z,402.1910
2022-09-14T00:52:15.188Z,402.1910
2022-09-14T00:52:26.314Z,401.4650
2022-09-14T00:52:37.450Z,402.9200
2022-09-14T00:52:48.590Z,402.6770
2022-09-14T00:52:59.861Z,403.6520
2022-09-14T00:53:11.006Z,402.1910
2022-09-14T00:53:22.135Z,402.1910
2022-09-14T00:53:33.263Z,402.4340
2022-09-14T00:53:44.414Z,402.1910
2022-09-14T00:53:55.529Z,401.7070
2022-09-14T00:54:06.796Z,401.7070
2022-09-14T00:54:17.925Z,401.9490
2022-09-14T00:54:29.058Z,401.7070
2022-09-14T00:54:40.136Z,402.6770
2022-09-14T00:54:51.264Z,402.6770
2022-09-14T00:55:02.402Z,402.1910
2022-09-14T00:55:13.683Z,401.2230
2022-09-14T00:55:24.817Z,401.2230
2022-09-14T00:55:35.889Z,401.9490
2022-09-14T00:55:47.091Z,401.9490
2022-09-14T00:55:58.218Z,401.7070
2022-09-14T00:56:09.345Z,404.1410
2022-09-14T00:56:20.471Z,401.2230
2022-09-14T00:56:31.523Z,401.7070
2022-09-14T00:56:42.563Z,402.1910
2022-09-14T00:56:53.696Z,401.9490
2022-09-14T00:57:04.851Z,401.9490
2022-09-14T00:57:16.060Z,401.9490
2022-09-14T00:57:27.252Z,403.1640
2022-09-14T00:57:38.459Z,402.4340
2022-09-14T00:57:49.803Z,401.7070
2022-09-14T00:58:00.934Z,401.7070
2022-09-14T00:58:12.068Z,401.7070
2022-09-14T00:58:23.255Z,401.7070
2022-09-14T00:58:34.450Z,400.7410
2022-09-14T00:58:45.576Z,402.6770
2022-09-14T00:58:56.703Z,402.1910
2022-09-14T00:59:07.868Z,400.7410
2022-09-14T00:59:18.999Z,401.4650
2022-09-14T00:59:30.125Z,404.6320
2022-09-14T00:59:41.241Z,404.1410
2022-09-14T00:59:52.525Z,401.7070
2022-09-14T01:00:03.773Z,401.4650
2022-09-14T01:00:14.935Z,401.2230
2022-09-14T01:00:26.068Z,400.7410
2022-09-14T01:00:37.199Z,402.4340
2022-09-14T01:00:48.444Z,402.1910
2022-09-14T01:00:59.650Z,401.2230
2022-09-14T01:01:10.863Z,400.9820
2022-09-14T01:01:22.092Z,401.7070
2022-09-14T01:01:33.302Z,401.2230
2022-09-14T01:01:44.637Z,400.7410
2022-09-14T01:01:56.044Z,401.2230
2022-09-14T01:02:07.375Z,400.5000
2022-09-14T01:02:18.549Z,400.5000
2022-09-14T01:02:29.714Z,401.2230
2022-09-14T01:02:40.935Z,400.7410
2022-09-14T01:02:52.086Z,400.7410
2022-09-14T01:03:03.293Z,401.4650
2022-09-14T01:03:14.477Z,401.2230
2022-09-14T01:03:25.678Z,400.5000
2022-09-14T01:03:36.882Z,401.2230
2022-09-14T01:03:48.019Z,401.4650
2022-09-14T01:03:59.397Z,400.2600
2022-09-14T01:04:10.463Z,400.2600
2022-09-14T01:04:21.613Z,400.5000
2022-09-14T01:04:32.751Z,401.2230
2022-09-14T01:04:43.882Z,401.2230
2022-09-14T01:04:55.011Z,401.2230
2022-09-14T01:05:06.149Z,401.4650
2022-09-14T01:05:17.343Z,402.1910
2022-09-14T01:05:28.562Z,401.2230
2022-09-14T01:05:39.764Z,402.1910
2022-09-14T01:05:50.953Z,400.5000
2022-09-14T01:06:02.303Z,401.4650
2022-09-14T01:06:13.440Z,401.4650
2022-09-14T01:06:24.559Z,401.2230
2022-09-14T01:06:35.755Z,401.9490
2022-09-14T01:06:46.962Z,401.2230
2022-09-14T01:06:58.163Z,400.2600
2022-09-14T01:07:09.371Z,400.7410
2022-09-14T01:07:20.562Z,401.2230
2022-09-14T01:07:31.762Z,401.7070
2022-09-14T01:07:42.959Z,402.1910
2022-09-14T01:07:54.160Z,401.2230
2022-09-14T01:08:05.509Z,401.9490
2022-09-14T01:08:16.640Z,399.7800
2022-09-14T01:08:27.773Z,401.7070
2022-09-14T01:08:38.848Z,402.1910
2022-09-14T01:08:50.214Z,401.7070
2022-09-14T01:09:01.360Z,401.9490
2022-09-14T01:09:12.585Z,401.9490
2022-09-14T01:09:23.723Z,400.9820
2022-09-14T01:09:34.964Z,401.4650
2022-09-14T01:09:46.160Z,402.1910
2022-09-14T01:09:57.356Z,402.1910
2022-09-14T01:10:08.574Z,401.7070
2022-09-14T01:10:19.914Z,403.6520
2022-09-14T01:10:31.042Z,402.4340
2022-09-14T01:10:42.164Z,401.7070
2022-09-14T01:10:53.383Z,401.7070
2022-09-14T01:11:04.564Z,401.9490
2022-09-14T01:11:15.719Z,402.1910
2022-09-14T01:11:26.770Z,402.1910
2022-09-14T01:11:37.903Z,403.1640
2022-09-14T01:11:51.628Z,402.9200
2022-09-14T01:12:03.301Z,399.5410
2022-09-14T01:12:14.440Z,399.7800
2022-09-14T01:12:25.730Z,400.9820
2022-09-14T01:12:36.869Z,400.5000
2022-09-14T01:12:48.002Z,401.2230
2022-09-14T01:12:59.124Z,401.7070
2022-09-14T01:13:10.192Z,401.2230
2022-09-14T01:13:21.295Z,401.7070
2022-09-14T01:13:32.482Z,401.9490
2022-09-14T01:13:43.628Z,401.9490
2022-09-14T01:13:54.695Z,401.2230
2022-09-14T01:14:05.817Z,401.7070
2022-09-14T01:14:17.002Z,401.9490
2022-09-14T01:14:28.144Z,401.9490
2022-09-14T01:14:39.282Z,401.7070
2022-09-14T01:14:50.481Z,402.9200
2022-09-14T01:15:01.678Z,402.6770
2022-09-14T01:15:13.012Z,403.4080
2022-09-14T01:15:24.160Z,401.4650
2022-09-14T01:15:35.293Z,402.9200
2022-09-14T01:15:46.465Z,402.9200
2022-09-14T01:15:57.744Z,403.6520
2022-09-14T01:16:08.920Z,402.6770
2022-09-14T01:16:20.079Z,402.9200
2022-09-14T01:16:31.254Z,403.1640
2022-09-14T01:16:42.389Z,403.1640
2022-09-14T01:16:53.541Z,403.1640
2022-09-14T01:17:04.650Z,403.1640
2022-09-14T01:17:15.774Z,404.3860
2022-09-14T01:17:27.098Z,403.4080
2022-09-14T01:17:38.187Z,403.8970
2022-09-14T01:17:49.253Z,404.3860
2022-09-14T01:18:00.375Z,404.1410
2022-09-14T01:18:11.516Z,404.1410
2022-09-14T01:18:22.653Z,402.6770
2022-09-14T01:18:33.833Z,402.6770
2022-09-14T01:18:45.032Z,402.9200
2022-09-14T01:18:56.239Z,404.1410
2022-09-14T01:19:07.438Z,403.1640
2022-09-14T01:19:18.674Z,403.4080
2022-09-14T01:19:29.811Z,403.1640
2022-09-14T01:19:41.030Z,403.6520
2022-09-14T01:19:52.384Z,403.6520
2022-09-14T01:20:03.525Z,403.6520
2022-09-14T01:20:14.660Z,403.1640
2022-09-14T01:20:25.832Z,403.6520
2022-09-14T01:20:37.041Z,404.1410
2022-09-14T01:20:48.242Z,402.9200
2022-09-14T01:20:59.443Z,402.9200
2022-09-14T01:21:10.640Z,403.1640
2022-09-14T01:21:21.835Z,404.6320
2022-09-14T01:21:33.038Z,403.4080
2022-09-14T01:21:44.233Z,402.4340
2022-09-14T01:21:55.578Z,402.9200
2022-09-14T01:22:06.719Z,402.6770
2022-09-14T01:22:17.844Z,404.1410
2022-09-14T01:22:29.041Z,404.1410
2022-09-14T01:22:40.240Z,402.1910
2022-09-14T01:22:51.433Z,403.6520
2022-09-14T01:23:02.666Z,402.9200
2022-09-14T01:23:13.793Z,403.8970
2022-09-14T01:23:24.923Z,403.6520
2022-09-14T01:23:36.130Z,404.1410
2022-09-14T01:23:47.262Z,403.1640
2022-09-14T01:23:58.403Z,403.6520
2022-09-14T01:24:09.502Z,403.6520
2022-09-14T01:24:20.741Z,404.1410
2022-09-14T01:24:31.923Z,403.6520
2022-09-14T01:24:43.124Z,403.4080
2022-09-14T01:24:54.332Z,404.3860
2022-09-14T01:25:05.514Z,405.3700
2022-09-14T01:25:16.722Z,404.6320
2022-09-14T01:25:27.922Z,403.4080
2022-09-14T01:25:39.066Z,404.1410
2022-09-14T01:25:50.204Z,404.6320
2022-09-14T01:26:01.325Z,404.1410
2022-09-14T01:26:12.383Z,403.6520
2022-09-14T01:26:23.742Z,404.6320
2022-09-14T01:26:34.893Z,404.6320
2022-09-14T01:26:46.022Z,404.6320
2022-09-14T01:26:57.207Z,404.6320
2022-09-14T01:27:08.403Z,404.1410
2022-09-14T01:27:19.601Z,404.6320
2022-09-14T01:27:30.798Z,405.3700
2022-09-14T01:27:41.996Z,404.6320
2022-09-14T01:27:53.188Z,405.1230
2022-09-14T01:28:04.397Z,404.6320
2022-09-14T01:28:15.580Z,404.3860
2022-09-14T01:28:26.918Z,405.6160
2022-09-14T01:28:38.053Z,404.3860
2022-09-14T01:28:49.174Z,405.1230
2022-09-14T01:29:00.298Z,404.6320
2022-09-14T01:29:11.435Z,404.8770
2022-09-14T01:29:22.574Z,404.6320
2022-09-14T01:29:33.705Z,404.6320
2022-09-14T01:29:44.842Z,404.6320
2022-09-14T01:29:55.962Z,405.1230
2022-09-14T01:30:07.094Z,404.6320
2022-09-14T01:30:18.224Z,404.1410
2022-09-14T01:30:29.264Z,404.6320
2022-09-14T01:30:40.550Z,404.3860
2022-09-14T01:30:51.734Z,405.6160
2022-09-14T01:31:02.859Z,404.3860
2022-09-14T01:31:14.087Z,404.1410
2022-09-14T01:31:25.209Z,406.1100
2022-09-14T01:31:36.355Z,405.6160
2022-09-14T01:31:47.554Z,406.1100
2022-09-14T01:31:58.778Z,404.3860
2022-09-14T01:32:09.890Z,405.1230
2022-09-14T01:32:21.027Z,404.6320
2022-09-14T01:32:32.198Z,404.8770
2022-09-14T01:32:43.474Z,403.8970
2022-09-14T01:32:54.605Z,404.1410
2022-09-14T01:33:05.732Z,404.1410
2022-09-14T01:33:16.858Z,406.1100
2022-09-14T01:33:27.993Z,403.1640
2022-09-14T01:33:39.162Z,404.8770
2022-09-14T01:33:50.205Z,405.8630
2022-09-14T01:34:01.339Z,405.8630
2022-09-14T01:34:12.462Z,405.3700
2022-09-14T01:34:23.613Z,405.3700
2022-09-14T01:34:34.770Z,404.6320
2022-09-14T01:34:45.832Z,405.6160
2022-09-14T01:34:56.971Z,405.6160
2022-09-14T01:35:08.247Z,405.6160
2022-09-14T01:35:19.387Z,405.1230
2022-09-14T01:35:30.530Z,404.8770
2022-09-14T01:35:41.579Z,405.3700
2022-09-14T01:35:52.656Z,405.1230
2022-09-14T01:36:03.800Z,406.1100
2022-09-14T01:36:14.928Z,406.6060
2022-09-14T01:36:26.128Z,405.8630
2022-09-14T01:36:37.178Z,405.6160
2022-09-14T01:36:48.239Z,405.1230
2022-09-14T01:36:59.410Z,405.6160
2022-09-14T01:37:10.544Z,405.1230
2022-09-14T01:37:21.666Z,407.6000
2022-09-14T01:37:32.801Z,404.6320
2022-09-14T01:37:43.840Z,405.6160
2022-09-14T01:37:55.116Z,406.3580
2022-09-14T01:38:06.287Z,405.1230
2022-09-14T01:38:17.425Z,405.6160
2022-09-14T01:38:28.562Z,405.1230
2022-09-14T01:38:39.622Z,405.1230
2022-09-14T01:38:50.775Z,404.6320
2022-09-14T01:39:01.860Z,404.8770
2022-09-14T01:39:12.972Z,405.3700
2022-09-14T01:39:24.140Z,405.3700
2022-09-14T01:39:35.195Z,405.8630
2022-09-14T01:39:46.389Z,405.3700
2022-09-14T01:39:57.503Z,405.8630
2022-09-14T01:40:08.688Z,405.6160
2022-09-14T01:40:20.021Z,404.8770
2022-09-14T01:40:31.206Z,404.6320
2022-09-14T01:40:42.316Z,404.6320
2022-09-14T01:40:53.439Z,405.1230
2022-09-14T01:41:04.575Z,404.6320
2022-09-14T01:41:15.726Z,404.6320
2022-09-14T01:41:26.780Z,406.1100
2022-09-14T01:41:37.932Z,404.6320
2022-09-14T01:41:49.063Z,403.8970
2022-09-14T01:42:00.189Z,404.8770
2022-09-14T01:42:11.325Z,405.1230
2022-09-14T01:42:22.455Z,405.1230
2022-09-14T01:42:33.529Z,405.8630
2022-09-14T01:42:44.692Z,405.1230
2022-09-14T01:42:55.812Z,405.8630
2022-09-14T01:43:06.943Z,405.3700
2022-09-14T01:43:18.070Z,406.1100
2022-09-14T01:43:29.200Z,405.6160
2022-09-14T01:43:40.269Z,405.3700
2022-09-14T01:43:51.421Z,405.1230
2022-09-14T01:44:02.550Z,405.6160
2022-09-14T01:44:13.683Z,405.8630
2022-09-14T01:44:24.872Z,405.3700
2022-09-14T01:44:35.956Z,405.6160
2022-09-14T01:44:47.088Z,405.8630
2022-09-14T01:44:58.373Z,405.8630
2022-09-14T01:45:09.497Z,405.1230
2022-09-14T01:45:20.680Z,404.6320
2022-09-14T01:45:31.878Z,405.6160
2022-09-14T01:45:43.088Z,405.8630
2022-09-14T01:45:54.332Z,405.8630
2022-09-14T01:46:05.563Z,404.8770
2022-09-14T01:46:16.767Z,405.6160
2022-09-14T01:46:27.871Z,406.1100
2022-09-14T01:46:38.924Z,404.8770
2022-09-14T01:46:50.049Z,405.8630
2022-09-14T01:47:01.338Z,405.6160
2022-09-14T01:47:12.535Z,406.1100
2022-09-14T01:47:23.728Z,406.1100
2022-09-14T01:47:34.939Z,405.3700
2022-09-14T01:47:45.970Z,405.6160
2022-09-14T01:47:57.116Z,406.1100
2022-09-14T01:48:08.237Z,406.3580
2022-09-14T01:48:19.408Z,406.1100
2022-09-14T01:48:30.611Z,404.3860
2022-09-14T01:48:41.738Z,406.1100
2022-09-14T01:48:52.868Z,405.6160
2022-09-14T01:49:04.147Z,406.3580
2022-09-14T01:49:15.278Z,405.6160
2022-09-14T01:49:26.445Z,406.3580
2022-09-14T01:49:37.580Z,405.6160
2022-09-14T01:49:48.711Z,405.6160
2022-09-14T01:49:59.881Z,406.1100
2022-09-14T01:50:11.006Z,405.6160
2022-09-14T01:50:22.131Z,405.3700
2022-09-14T01:50:33.259Z,406.6060
2022-09-14T01:50:44.397Z,407.3510
2022-09-14T01:50:55.574Z,406.1100
2022-09-14T01:51:06.917Z,407.6000
2022-09-14T01:51:18.097Z,406.8540
2022-09-14T01:51:29.299Z,406.6060
2022-09-14T01:51:40.429Z,406.3580
2022-09-14T01:51:51.565Z,407.1020
2022-09-14T01:52:02.698Z,406.6060
2022-09-14T01:52:13.843Z,407.1020
2022-09-14T01:52:24.969Z,406.6060
2022-09-14T01:52:36.102Z,407.1020
2022-09-14T01:52:47.249Z,406.6060
2022-09-14T01:52:58.448Z,406.6060
2022-09-14T01:53:09.736Z,407.1020
2022-09-14T01:53:20.868Z,407.6000
2022-09-14T01:53:32.048Z,406.6060
2022-09-14T01:53:43.291Z,407.8490
2022-09-14T01:53:54.455Z,407.8490
2022-09-14T01:54:05.685Z,408.0990
2022-09-14T01:54:16.771Z,407.1020
2022-09-14T01:54:27.922Z,407.8490
2022-09-14T01:54:38.962Z,408.3490
2022-09-14T01:54:50.130Z,407.3510
2022-09-14T01:55:01.260Z,409.8540
2022-09-14T01:55:12.399Z,407.8490
2022-09-14T01:55:23.696Z,408.5990
2022-09-14T01:55:34.742Z,408.8490
2022-09-14T01:55:45.872Z,409.1000
2022-09-14T01:55:57.007Z,409.1000
2022-09-14T01:56:08.127Z,409.6030
2022-09-14T01:56:19.261Z,408.3490
2022-09-14T01:56:30.324Z,409.3510
2022-09-14T01:56:41.369Z,407.6000
2022-09-14T01:56:52.495Z,409.1000
2022-09-14T01:57:03.633Z,411.1180
2022-09-14T01:57:14.770Z,410.1060
2022-09-14T01:57:25.904Z,410.3590
2022-09-14T01:57:37.039Z,409.8540
2022-09-14T01:57:48.309Z,409.3510
2022-09-14T01:57:59.444Z,411.1180
2022-09-14T01:58:10.570Z,409.6030
2022-09-14T01:58:21.694Z,408.8490
2022-09-14T01:58:32.851Z,410.1060
2022-09-14T01:58:44.052Z,410.3590
2022-09-14T01:58:55.102Z,411.1180
2022-09-14T01:59:06.258Z,411.6250
2022-09-14T01:59:17.393Z,410.8650
2022-09-14T01:59:28.656Z,411.3710
2022-09-14T01:59:39.781Z,411.1180
2022-09-14T01:59:50.921Z,410.6120
2022-09-14T02:00:02.197Z,411.3710
2022-09-14T02:00:13.307Z,411.6250
2022-09-14T02:00:24.444Z,411.8800
2022-09-14T02:00:35.640Z,411.3710
2022-09-14T02:00:46.860Z,410.6120
2022-09-14T02:00:58.000Z,411.6250
2022-09-14T02:01:09.137Z,412.9000
2022-09-14T02:01:20.407Z,410.1060
2022-09-14T02:01:31.786Z,411.1180
2022-09-14T02:01:45.534Z,410.8650
2022-09-14T02:02:00.229Z,404.3860
2022-09-14T02:02:12.010Z,405.8630
2022-09-14T02:02:23.334Z,404.6320
2022-09-14T02:02:34.989Z,405.1230
2022-09-14T02:02:46.295Z,405.6160
2022-09-14T02:02:57.487Z,405.6160
2022-09-14T02:03:08.690Z,406.3580
2022-09-14T02:03:19.868Z,406.8540
2022-09-14T02:03:31.324Z,407.8490
2022-09-14T02:03:42.606Z,406.6060
2022-09-14T02:03:53.826Z,405.8630
2022-09-14T02:04:05.007Z,408.5990
2022-09-14T02:04:16.368Z,408.0990
2022-09-14T02:04:27.527Z,410.1060
2022-09-14T02:04:38.676Z,409.1000
2022-09-14T02:04:49.802Z,407.8490
2022-09-14T02:05:00.934Z,409.3510
2022-09-14T02:05:12.071Z,410.3590
2022-09-14T02:05:23.257Z,410.1060
2022-09-14T02:05:34.385Z,410.8650
2022-09-14T02:05:45.508Z,409.8540
2022-09-14T02:05:56.690Z,409.3510
2022-09-14T02:06:07.883Z,410.3590
2022-09-14T02:06:19.158Z,409.8540
2022-09-14T02:06:30.293Z,410.6120
2022-09-14T02:06:41.336Z,411.1180
2022-09-14T02:06:52.472Z,411.6250
2022-09-14T02:07:03.599Z,410.6120
2022-09-14T02:07:14.769Z,409.3510
2022-09-14T02:07:25.898Z,410.6120
2022-09-14T02:07:37.030Z,411.6250
2022-09-14T02:07:48.158Z,412.6440
2022-09-14T02:07:59.281Z,412.9000
2022-09-14T02:08:10.448Z,412.9000
2022-09-14T02:08:21.582Z,411.3710
2022-09-14T02:08:32.871Z,412.6440
2022-09-14T02:08:44.061Z,412.1340
2022-09-14T02:08:55.248Z,412.6440
2022-09-14T02:09:06.384Z,412.6440
2022-09-14T02:09:17.580Z,412.6440
2022-09-14T02:09:28.665Z,413.1560
2022-09-14T02:09:39.786Z,412.1340
2022-09-14T02:09:50.909Z,413.9250
2022-09-14T02:10:02.041Z,413.9250
2022-09-14T02:10:13.181Z,415.2140
2022-09-14T02:10:24.317Z,413.1560
2022-09-14T02:10:35.379Z,413.4120
2022-09-14T02:10:46.510Z,413.4120
2022-09-14T02:10:57.796Z,414.1820
2022-09-14T02:11:08.937Z,414.1820
2022-09-14T02:11:20.065Z,415.7310
2022-09-14T02:11:31.139Z,415.2140